createdAt,value
2019-06-01T00:02:08.848Z,16.00
2019-06-01T00:04:35.598Z,16.00
2019-06-01T00:07:01.772Z,16.00
2019-06-01T00:09:29.092Z,16.00
2019-06-01T00:11:55.410Z,16.00
2019-06-01T00:14:21.839Z,16.00
2019-06-01T00:16:48.159Z,16.10
2019-06-01T00:19:14.355Z,16.10
2019-06-01T00:21:41.183Z,16.00
2019-06-01T00:24:07.556Z,15.90
2019-06-01T00:26:33.764Z,16.00
2019-06-01T00:29:00.016Z,16.00
2019-06-01T00:31:26.218Z,15.90
2019-06-01T00:33:52.411Z,15.90
2019-06-01T00:36:19.027Z,15.90
2019-06-01T00:38:45.736Z,15.80
2019-06-01T00:41:12.032Z,15.70
2019-06-01T00:43:38.322Z,15.80
2019-06-01T00:46:04.474Z,15.80
2019-06-01T00:48:30.689Z,15.70
2019-06-01T00:50:56.910Z,15.70
2019-06-01T00:53:23.080Z,15.70
2019-06-01T00:55:49.474Z,15.70
2019-06-01T00:58:15.841Z,15.70
2019-06-01T01:00:44.171Z,15.70
2019-06-01T01:03:10.183Z,15.70
2019-06-01T01:05:36.413Z,15.70
2019-06-01T01:08:02.954Z,15.60
2019-06-01T01:10:29.715Z,15.60
2019-06-01T01:13:03.294Z,15.60
2019-06-01T01:15:29.447Z,15.60
2019-06-01T01:17:56.157Z,15.60
2019-06-01T01:20:22.615Z,15.60
2019-06-01T01:22:50.154Z,15.50
2019-06-01T01:25:16.475Z,15.50
2019-06-01T01:27:42.694Z,15.50
2019-06-01T01:30:09.256Z,15.50
2019-06-01T01:32:35.459Z,15.30
2019-06-01T01:35:03.263Z,15.40
2019-06-01T01:37:29.515Z,15.40
2019-06-01T01:39:56.287Z,15.40
2019-06-01T01:42:22.663Z,15.30
2019-06-01T01:44:48.813Z,15.30
2019-06-01T01:47:15.325Z,15.30
2019-06-01T01:49:41.515Z,15.30
2019-06-01T01:52:07.764Z,15.30
2019-06-01T01:54:33.919Z,15.20
2019-06-01T01:57:00.094Z,15.20
2019-06-01T01:59:27.383Z,15.10
2019-06-01T02:01:54.644Z,15.10
2019-06-01T02:04:20.978Z,15.10
2019-06-01T02:06:47.229Z,15.10
2019-06-01T02:09:13.417Z,15.10
2019-06-01T02:11:39.853Z,15.00
2019-06-01T02:14:06.257Z,15.00
2019-06-01T02:16:32.523Z,15.00
2019-06-01T02:18:58.883Z,14.90
2019-06-01T02:21:25.579Z,14.90
2019-06-01T02:23:52.927Z,14.80
2019-06-01T02:26:28.374Z,14.90
2019-06-01T02:28:57.361Z,14.90
2019-06-01T02:31:40.549Z,14.80
2019-06-01T02:33:58.758Z,14.80
2019-06-01T02:36:26.074Z,14.80
2019-06-01T02:38:54.606Z,14.80
2019-06-01T02:41:22.964Z,14.80
2019-06-01T02:43:49.121Z,14.80
2019-06-01T02:46:15.263Z,14.90
2019-06-01T02:48:42.478Z,14.80
2019-06-01T02:51:09.152Z,14.90
2019-06-01T02:53:37.447Z,14.80
2019-06-01T02:56:04.415Z,14.80
2019-06-01T02:58:30.619Z,14.80
2019-06-01T03:01:18.947Z,14.80
2019-06-01T03:03:45.690Z,14.80
2019-06-01T03:06:15.920Z,14.80
2019-06-01T03:08:42.507Z,14.80
2019-06-01T03:11:12.141Z,14.80
2019-06-01T03:13:40.764Z,14.80
2019-06-01T03:16:09.007Z,14.80
2019-06-01T03:18:38.678Z,14.90
2019-06-01T03:21:08.483Z,14.90
2019-06-01T03:23:38.397Z,14.90
2019-06-01T03:26:08.828Z,14.90
2019-06-01T03:28:39.740Z,14.80
2019-06-01T03:31:08.895Z,14.80
2019-06-01T03:33:38.639Z,14.90
2019-06-01T03:36:06.828Z,14.80
2019-06-01T03:38:40.338Z,14.80
2019-06-01T03:41:08.294Z,14.90
2019-06-01T03:43:34.947Z,14.80
2019-06-01T03:46:02.233Z,14.90
2019-06-01T03:48:28.770Z,14.80
2019-06-01T03:50:56.249Z,14.90
2019-06-01T03:53:23.103Z,15.00
2019-06-01T03:55:49.464Z,15.00
2019-06-01T03:58:15.744Z,15.00
2019-06-01T04:00:41.911Z,15.00
2019-06-01T04:03:09.225Z,15.00
2019-06-01T04:05:37.822Z,15.10
2019-06-01T04:08:03.976Z,15.10
2019-06-01T04:10:31.112Z,15.10
2019-06-01T04:12:57.261Z,15.20
2019-06-01T04:15:24.218Z,15.20
2019-06-01T04:17:52.588Z,15.20
2019-06-01T04:20:18.845Z,15.20
2019-06-01T04:22:44.992Z,15.30
2019-06-01T04:25:12.228Z,15.30
2019-06-01T04:27:38.712Z,15.30
2019-06-01T04:30:09.460Z,15.40
2019-06-01T04:32:49.285Z,15.60
2019-06-01T04:35:09.009Z,15.50
2019-06-01T04:37:36.397Z,15.50
2019-06-01T04:40:05.310Z,15.50
2019-06-01T04:42:32.579Z,15.60
2019-06-01T04:44:58.743Z,15.60
2019-06-01T04:47:25.117Z,15.70
2019-06-01T04:49:53.244Z,15.70
2019-06-01T04:52:19.479Z,15.80
2019-06-01T04:54:45.724Z,15.70
2019-06-01T04:57:13.036Z,15.70
2019-06-01T04:59:39.307Z,15.90
2019-06-01T05:02:05.754Z,15.90
2019-06-01T05:04:34.236Z,15.80
2019-06-01T05:07:00.511Z,15.90
2019-06-01T05:09:26.728Z,16.00
2019-06-01T05:11:53.704Z,16.10
2019-06-01T05:14:20.183Z,16.20
2019-06-01T05:16:46.358Z,16.20
2019-06-01T05:19:12.849Z,16.40
2019-06-01T05:21:39.467Z,16.60
2019-06-01T05:24:06.657Z,16.80
2019-06-01T05:26:33.929Z,16.80
2019-06-01T05:29:00.073Z,17.10
2019-06-01T05:31:26.216Z,17.50
2019-06-01T05:33:54.354Z,18.10
2019-06-01T05:36:20.734Z,18.20
2019-06-01T05:38:48.510Z,18.50
2019-06-01T05:41:14.966Z,18.90
2019-06-01T05:43:41.249Z,19.30
2019-06-01T05:46:08.487Z,19.50
2019-06-01T05:48:34.669Z,19.80
2019-06-01T05:51:01.099Z,20.00
2019-06-01T05:53:27.234Z,20.20
2019-06-01T05:55:53.455Z,20.60
2019-06-01T05:58:19.829Z,20.80
2019-06-01T06:00:46.535Z,21.10
2019-06-01T06:03:15.514Z,21.10
2019-06-01T06:05:41.287Z,21.10
2019-06-01T06:08:09.080Z,21.50
2019-06-01T06:10:36.367Z,21.70
2019-06-01T06:13:03.849Z,22.00
2019-06-01T06:15:30.075Z,22.00
2019-06-01T06:17:56.227Z,22.70
2019-06-01T06:20:24.582Z,22.30
2019-06-01T06:22:50.824Z,22.80
2019-06-01T06:25:18.812Z,22.60
2019-06-01T06:27:44.968Z,22.70
2019-06-01T06:30:12.737Z,22.30
2019-06-01T06:32:39.370Z,22.50
2019-06-01T06:35:07.485Z,22.00
2019-06-01T06:37:35.506Z,22.60
2019-06-01T06:40:05.474Z,22.70
2019-06-01T06:42:31.617Z,22.30
2019-06-01T06:44:57.767Z,22.30
2019-06-01T06:47:25.018Z,22.10
2019-06-01T06:49:53.416Z,22.20
2019-06-01T06:52:19.626Z,22.80
2019-06-01T06:54:45.866Z,23.00
2019-06-01T06:57:12.020Z,22.80
2019-06-01T06:59:39.529Z,23.10
2019-06-01T07:02:05.676Z,23.40
2019-06-01T07:04:31.860Z,24.00
2019-06-01T07:06:58.015Z,24.50
2019-06-01T07:09:24.177Z,24.90
2019-06-01T07:11:50.462Z,24.20
2019-06-01T07:14:16.614Z,25.40
2019-06-01T07:16:42.847Z,25.30
2019-06-01T07:19:09.078Z,25.10
2019-06-01T07:21:35.487Z,25.00
2019-06-01T07:24:01.933Z,24.60
2019-06-01T07:26:29.324Z,24.50
2019-06-01T07:28:55.574Z,24.90
2019-06-01T07:31:22.071Z,24.60
2019-06-01T07:33:48.312Z,24.20
2019-06-01T07:36:14.634Z,24.20
2019-06-01T07:38:40.836Z,24.50
2019-06-01T07:41:06.990Z,24.80
2019-06-01T07:43:35.305Z,25.00
2019-06-01T07:46:01.469Z,24.70
2019-06-01T07:48:29.086Z,24.70
2019-06-01T07:50:55.598Z,24.30
2019-06-01T07:53:23.913Z,24.40
2019-06-01T07:55:49.821Z,24.80
2019-06-01T07:58:15.970Z,24.90
2019-06-01T08:00:42.414Z,25.40
2019-06-01T08:03:08.670Z,25.70
2019-06-01T08:05:35.097Z,26.20
2019-06-01T08:08:01.275Z,25.80
2019-06-01T08:10:29.534Z,25.70
2019-06-01T08:12:55.855Z,27.00
2019-06-01T08:15:23.421Z,26.40
2019-06-01T08:17:50.246Z,26.40
2019-06-01T08:20:16.491Z,26.10
2019-06-01T08:22:42.648Z,26.70
2019-06-01T08:25:09.081Z,27.00
2019-06-01T08:27:35.604Z,27.50
2019-06-01T08:30:04.441Z,27.80
2019-06-01T08:32:31.007Z,26.50
2019-06-01T08:35:07.765Z,27.10
2019-06-01T08:37:25.284Z,27.60
2019-06-01T08:39:51.479Z,27.00
2019-06-01T08:42:17.647Z,27.00
2019-06-01T08:44:44.105Z,26.70
2019-06-01T08:47:10.915Z,26.50
2019-06-01T08:49:37.088Z,27.10
2019-06-01T08:52:03.431Z,28.00
2019-06-01T08:54:30.290Z,27.70
2019-06-01T08:56:56.822Z,27.00
2019-06-01T08:59:24.184Z,26.50
2019-06-01T09:01:50.425Z,26.70
2019-06-01T09:04:16.833Z,26.90
2019-06-01T09:06:42.983Z,26.00
2019-06-01T09:09:11.761Z,26.40
2019-06-01T09:11:37.229Z,27.10
2019-06-01T09:14:03.600Z,27.20
2019-06-01T09:16:29.899Z,27.10
2019-06-01T09:18:56.076Z,27.20
2019-06-01T09:21:22.560Z,27.70
2019-06-01T09:23:48.702Z,27.40
2019-06-01T09:26:14.869Z,26.80
2019-06-01T09:28:41.352Z,26.50
2019-06-01T09:31:07.747Z,26.90
2019-06-01T09:33:35.292Z,26.70
2019-06-01T09:36:02.987Z,27.70
2019-06-01T09:38:29.630Z,28.10
2019-06-01T09:40:56.128Z,27.90
2019-06-01T09:43:22.440Z,27.10
2019-06-01T09:45:53.027Z,27.20
2019-06-01T09:48:17.170Z,27.10
2019-06-01T09:50:44.196Z,26.20
2019-06-01T09:53:10.390Z,26.50
2019-06-01T09:55:36.553Z,27.00
2019-06-01T09:58:02.942Z,27.50
2019-06-01T10:00:30.350Z,27.50
2019-06-01T10:02:56.574Z,27.60
2019-06-01T10:05:22.726Z,27.40
2019-06-01T10:07:48.950Z,27.30
2019-06-01T10:10:15.422Z,27.60
2019-06-01T10:12:42.296Z,27.50
2019-06-01T10:15:11.175Z,27.90
2019-06-01T10:17:38.861Z,27.70
2019-06-01T10:20:06.008Z,27.00
2019-06-01T10:22:33.139Z,27.10
2019-06-01T10:24:59.842Z,27.70
2019-06-01T10:27:26.010Z,27.70
2019-06-01T10:29:52.233Z,27.10
2019-06-01T10:32:18.482Z,27.30
2019-06-01T10:34:44.698Z,27.40
2019-06-01T10:37:10.967Z,27.90
2019-06-01T10:39:37.271Z,28.40
2019-06-01T10:42:03.603Z,27.30
2019-06-01T10:44:29.795Z,28.00
2019-06-01T10:46:55.995Z,27.60
2019-06-01T10:49:22.166Z,27.30
2019-06-01T10:51:48.321Z,27.30
2019-06-01T10:54:14.612Z,27.80
2019-06-01T10:56:40.810Z,28.20
2019-06-01T10:59:06.951Z,27.60
2019-06-01T11:01:35.559Z,27.20
2019-06-01T11:04:01.205Z,27.10
2019-06-01T11:06:36.586Z,27.70
2019-06-01T11:08:55.431Z,27.70
2019-06-01T11:11:21.834Z,27.70
2019-06-01T11:13:48.012Z,27.00
2019-06-01T11:16:14.320Z,27.20
2019-06-01T11:18:41.864Z,27.20
2019-06-01T11:21:08.273Z,27.50
2019-06-01T11:23:35.539Z,27.50
2019-06-01T11:26:02.229Z,27.80
2019-06-01T11:28:28.830Z,27.50
2019-06-01T11:30:55.009Z,27.60
2019-06-01T11:33:21.409Z,27.90
2019-06-01T11:35:47.851Z,28.00
2019-06-01T11:38:14.056Z,27.70
2019-06-01T11:40:40.813Z,27.30
2019-06-01T11:43:07.158Z,28.30
2019-06-01T11:45:34.761Z,27.90
2019-06-01T11:48:01.085Z,28.10
2019-06-01T11:50:27.253Z,27.80
2019-06-01T11:52:53.526Z,27.80
2019-06-01T11:55:19.694Z,27.80
2019-06-01T11:57:46.029Z,27.40
2019-06-01T12:00:13.983Z,27.40
2019-06-01T12:02:40.250Z,27.60
2019-06-01T12:05:07.113Z,27.70
2019-06-01T12:07:33.706Z,27.50
2019-06-01T12:09:59.880Z,27.50
2019-06-01T12:12:26.054Z,27.90
2019-06-01T12:14:52.397Z,27.60
2019-06-01T12:17:18.939Z,28.40
2019-06-01T12:19:45.113Z,28.00
2019-06-01T12:22:11.267Z,28.00
2019-06-01T12:24:37.443Z,27.80
2019-06-01T12:27:03.795Z,27.70
2019-06-01T12:29:30.069Z,28.20
2019-06-01T12:31:56.755Z,27.70
2019-06-01T12:34:23.018Z,28.30
2019-06-01T12:36:49.281Z,28.20
2019-06-01T12:39:15.815Z,28.20
2019-06-01T12:41:42.023Z,28.30
2019-06-01T12:44:11.894Z,28.50
2019-06-01T12:46:39.665Z,28.40
2019-06-01T12:49:07.598Z,27.70
2019-06-01T12:51:34.184Z,28.00
2019-06-01T12:54:00.453Z,28.10
2019-06-01T12:56:26.639Z,28.50
2019-06-01T12:58:52.807Z,28.40
2019-06-01T13:01:19.012Z,28.40
2019-06-01T13:03:45.268Z,28.00
2019-06-01T13:06:11.515Z,27.80
2019-06-01T13:08:38.944Z,27.60
2019-06-01T13:11:05.308Z,27.90
2019-06-01T13:13:31.467Z,28.20
2019-06-01T13:15:57.631Z,28.00
2019-06-01T13:18:23.799Z,28.00
2019-06-01T13:20:49.974Z,28.10
2019-06-01T13:23:16.134Z,28.40
2019-06-01T13:25:43.455Z,28.70
2019-06-01T13:28:09.855Z,28.80
2019-06-01T13:30:36.002Z,28.90
2019-06-01T13:33:02.624Z,28.20
2019-06-01T13:35:29.612Z,28.30
2019-06-01T13:38:10.923Z,28.40
2019-06-01T13:40:23.823Z,28.50
2019-06-01T13:42:51.249Z,28.30
2019-06-01T13:45:17.755Z,28.20
2019-06-01T13:47:43.923Z,28.70
2019-06-01T13:50:10.507Z,28.40
2019-06-01T13:52:36.752Z,28.10
2019-06-01T13:55:06.255Z,28.50
2019-06-01T13:57:32.416Z,28.30
2019-06-01T13:59:58.759Z,28.10
2019-06-01T14:02:24.988Z,28.50
2019-06-01T14:04:52.179Z,28.70
2019-06-01T14:07:18.365Z,28.90
2019-06-01T14:09:45.200Z,28.60
2019-06-01T14:12:11.509Z,28.70
2019-06-01T14:14:37.648Z,28.30
2019-06-01T14:17:03.825Z,28.50
2019-06-01T14:19:30.271Z,28.60
2019-06-01T14:21:56.638Z,28.50
2019-06-01T14:24:22.846Z,28.70
2019-06-01T14:26:50.057Z,29.00
2019-06-01T14:29:16.598Z,29.20
2019-06-01T14:31:42.853Z,28.90
2019-06-01T14:34:09.000Z,28.60
2019-06-01T14:36:35.478Z,28.40
2019-06-01T14:39:01.612Z,28.30
2019-06-01T14:41:29.835Z,28.60
2019-06-01T14:43:56.382Z,28.50
2019-06-01T14:46:22.658Z,28.80
2019-06-01T14:48:49.362Z,28.40
2019-06-01T14:51:15.588Z,28.20
2019-06-01T14:53:42.968Z,28.10
2019-06-01T14:56:09.201Z,28.30
2019-06-01T14:58:35.415Z,28.30
2019-06-01T15:01:01.570Z,28.70
2019-06-01T15:03:28.018Z,28.70
2019-06-01T15:05:54.438Z,28.60
2019-06-01T15:08:20.767Z,28.40
2019-06-01T15:10:48.545Z,28.80
2019-06-01T15:13:15.136Z,28.60
2019-06-01T15:15:41.324Z,28.90
2019-06-01T15:18:07.886Z,28.70
2019-06-01T15:20:34.314Z,28.70
2019-06-01T15:23:00.487Z,28.80
2019-06-01T15:25:26.638Z,28.70
2019-06-01T15:27:52.810Z,28.60
2019-06-01T15:30:19.872Z,28.30
2019-06-01T15:32:47.205Z,28.00
2019-06-01T15:35:14.512Z,28.10
2019-06-01T15:37:40.927Z,28.50
2019-06-01T15:40:09.602Z,28.20
2019-06-01T15:42:35.840Z,28.00
2019-06-01T15:45:06.483Z,28.20
2019-06-01T15:47:32.919Z,28.00
2019-06-01T15:50:00.042Z,28.30
2019-06-01T15:52:26.733Z,28.60
2019-06-01T15:54:54.171Z,28.50
2019-06-01T15:57:20.480Z,28.50
2019-06-01T15:59:46.642Z,28.50
2019-06-01T16:02:12.791Z,28.60
2019-06-01T16:04:39.016Z,28.40
2019-06-01T16:07:05.908Z,28.60
2019-06-01T16:09:42.140Z,28.30
2019-06-01T16:12:01.715Z,28.30
2019-06-01T16:14:28.251Z,28.20
2019-06-01T16:16:55.731Z,28.10
2019-06-01T16:19:22.443Z,28.10
2019-06-01T16:21:48.642Z,28.30
2019-06-01T16:24:14.868Z,28.20
2019-06-01T16:26:41.028Z,28.30
2019-06-01T16:29:07.444Z,28.50
2019-06-01T16:31:33.635Z,28.40
2019-06-01T16:34:00.679Z,28.30
2019-06-01T16:36:27.279Z,28.40
2019-06-01T16:38:59.549Z,28.30
2019-06-01T16:41:21.597Z,28.10
2019-06-01T16:43:47.792Z,28.10
2019-06-01T16:46:14.310Z,27.90
2019-06-01T16:48:40.727Z,27.90
2019-06-01T16:51:06.897Z,27.70
2019-06-01T16:53:33.055Z,28.00
2019-06-01T16:55:59.863Z,27.80
2019-06-01T16:58:26.208Z,27.80
2019-06-01T17:00:52.750Z,27.90
2019-06-01T17:03:19.002Z,27.80
2019-06-01T17:05:45.457Z,27.90
2019-06-01T17:08:11.663Z,27.90
2019-06-01T17:10:37.909Z,27.60
2019-06-01T17:13:06.759Z,27.90
2019-06-01T17:15:32.307Z,28.00
2019-06-01T17:18:03.010Z,27.90
2019-06-01T17:20:44.199Z,27.90
2019-06-01T17:23:25.823Z,27.90
2019-06-01T17:25:38.954Z,28.00
2019-06-01T17:28:05.318Z,27.80
2019-06-01T17:30:31.683Z,27.80
2019-06-01T17:32:58.233Z,27.90
2019-06-01T17:35:24.479Z,27.90
2019-06-01T17:37:51.092Z,27.90
2019-06-01T17:40:17.667Z,27.80
2019-06-01T17:42:43.815Z,27.80
2019-06-01T17:45:10.565Z,27.60
2019-06-01T17:47:40.825Z,27.70
2019-06-01T17:50:05.548Z,27.70
2019-06-01T17:52:31.999Z,27.70
2019-06-01T17:54:58.162Z,27.50
2019-06-01T17:57:24.616Z,27.50
2019-06-01T17:59:50.815Z,27.60
2019-06-01T18:02:17.047Z,27.50
2019-06-01T18:04:43.225Z,27.60
2019-06-01T18:07:10.011Z,27.60
2019-06-01T18:09:36.544Z,27.50
2019-06-01T18:12:03.942Z,27.40
2019-06-01T18:14:30.310Z,27.30
2019-06-01T18:16:56.883Z,27.40
2019-06-01T18:19:23.312Z,27.20
2019-06-01T18:21:49.445Z,27.10
2019-06-01T18:24:15.622Z,27.10
2019-06-01T18:26:41.794Z,27.10
2019-06-01T18:29:08.608Z,27.10
2019-06-01T18:31:34.910Z,27.10
2019-06-01T18:34:01.116Z,27.00
2019-06-01T18:36:27.546Z,27.00
2019-06-01T18:38:53.683Z,26.90
2019-06-01T18:41:20.349Z,26.90
2019-06-01T18:43:46.579Z,26.70
2019-06-01T18:46:14.263Z,26.70
2019-06-01T18:48:40.736Z,26.60
2019-06-01T18:51:08.119Z,26.60
2019-06-01T18:53:34.582Z,26.50
2019-06-01T18:56:00.751Z,26.30
2019-06-01T18:58:27.018Z,26.30
2019-06-01T19:00:54.229Z,26.10
2019-06-01T19:03:20.758Z,26.10
2019-06-01T19:05:46.950Z,26.20
2019-06-01T19:08:13.672Z,26.00
2019-06-01T19:10:40.149Z,26.20
2019-06-01T19:13:07.550Z,26.20
2019-06-01T19:15:34.355Z,26.20
2019-06-01T19:18:00.560Z,26.10
2019-06-01T19:20:27.109Z,25.90
2019-06-01T19:22:53.326Z,25.70
2019-06-01T19:25:19.774Z,25.70
2019-06-01T19:27:45.991Z,25.60
2019-06-01T19:30:17.490Z,25.50
2019-06-01T19:32:43.977Z,25.60
2019-06-01T19:35:11.489Z,25.50
2019-06-01T19:37:39.243Z,25.50
2019-06-01T19:40:07.006Z,25.50
2019-06-01T19:42:35.547Z,25.30
2019-06-01T19:45:04.958Z,25.40
2019-06-01T19:47:31.400Z,25.20
2019-06-01T19:49:57.936Z,25.10
2019-06-01T19:52:24.161Z,24.90
2019-06-01T19:54:50.300Z,24.90
2019-06-01T19:57:20.362Z,24.60
2019-06-01T19:59:44.550Z,24.70
2019-06-01T20:02:25.101Z,24.70
2019-06-01T20:04:39.004Z,24.80
2019-06-01T20:07:05.526Z,24.60
2019-06-01T20:09:31.728Z,24.30
2019-06-01T20:12:01.929Z,24.50
2019-06-01T20:14:26.306Z,24.20
2019-06-01T20:16:52.595Z,24.20
2019-06-01T20:19:19.823Z,24.10
2019-06-01T20:21:46.110Z,24.10
2019-06-01T20:24:13.328Z,23.90
2019-06-01T20:26:45.820Z,23.90
2019-06-01T20:29:07.598Z,23.90
2019-06-01T20:31:34.123Z,23.80
2019-06-01T20:34:00.317Z,24.00
2019-06-01T20:36:26.509Z,23.90
2019-06-01T20:38:52.660Z,23.70
2019-06-01T20:41:18.816Z,23.70
2019-06-01T20:43:45.020Z,23.80
2019-06-01T20:46:12.753Z,23.50
2019-06-01T20:48:39.302Z,23.40
2019-06-01T20:51:05.435Z,23.40
2019-06-01T20:53:31.876Z,23.50
2019-06-01T20:55:58.019Z,23.40
2019-06-01T20:58:24.935Z,23.20
2019-06-01T21:00:51.327Z,23.10
2019-06-01T21:03:17.769Z,23.00
2019-06-01T21:05:44.386Z,23.00
2019-06-01T21:08:10.691Z,22.90
2019-06-01T21:10:37.215Z,23.00
2019-06-01T21:13:07.581Z,23.00
2019-06-01T21:15:32.959Z,23.00
2019-06-01T21:17:59.140Z,23.00
2019-06-01T21:20:29.793Z,22.80
2019-06-01T21:22:53.703Z,22.80
2019-06-01T21:25:20.839Z,22.70
2019-06-01T21:27:47.230Z,22.60
2019-06-01T21:30:16.076Z,22.60
2019-06-01T21:32:42.071Z,22.80
2019-06-01T21:35:08.826Z,22.80
2019-06-01T21:37:35.285Z,22.70
2019-06-01T21:40:06.561Z,22.60
2019-06-01T21:42:32.859Z,22.60
2019-06-01T21:44:59.329Z,22.50
2019-06-01T21:47:25.891Z,22.40
2019-06-01T21:49:53.125Z,22.30
2019-06-01T21:52:20.284Z,22.20
2019-06-01T21:54:46.445Z,22.20
2019-06-01T21:57:13.860Z,22.20
2019-06-01T21:59:40.286Z,22.10
2019-06-01T22:02:06.628Z,22.10
2019-06-01T22:04:32.907Z,22.00
2019-06-01T22:06:59.449Z,21.90
2019-06-01T22:09:25.631Z,21.80
2019-06-01T22:11:51.788Z,21.80
2019-06-01T22:14:17.933Z,21.80
2019-06-01T22:16:44.102Z,21.90
2019-06-01T22:19:10.610Z,21.70
2019-06-01T22:21:36.765Z,21.60
2019-06-01T22:24:03.117Z,21.60
2019-06-01T22:26:29.252Z,21.70
2019-06-01T22:28:55.479Z,21.70
2019-06-01T22:31:22.305Z,21.60
2019-06-01T22:33:48.729Z,21.50
2019-06-01T22:36:15.013Z,21.30
2019-06-01T22:38:41.540Z,21.20
2019-06-01T22:41:07.689Z,21.20
2019-06-01T22:43:45.454Z,21.20
2019-06-01T22:46:01.918Z,21.30
2019-06-01T22:48:29.191Z,21.30
2019-06-01T22:50:55.524Z,21.30
2019-06-01T22:53:22.025Z,21.30
2019-06-01T22:55:48.361Z,21.30
2019-06-01T22:58:14.489Z,21.10
2019-06-01T23:00:41.086Z,21.00
2019-06-01T23:03:07.228Z,21.10
2019-06-01T23:05:33.407Z,20.80
2019-06-01T23:07:59.568Z,20.80
2019-06-01T23:10:29.968Z,20.70
2019-06-01T23:12:54.354Z,20.70
2019-06-01T23:15:21.394Z,20.60
2019-06-01T23:17:47.766Z,20.70
2019-06-01T23:20:16.052Z,20.70
2019-06-01T23:22:42.269Z,20.60
2019-06-01T23:25:08.626Z,20.50
2019-06-01T23:27:35.111Z,20.40
2019-06-01T23:30:02.467Z,20.40
2019-06-01T23:32:28.710Z,20.40
2019-06-01T23:34:54.875Z,20.40
2019-06-01T23:37:22.645Z,20.30
2019-06-01T23:39:48.958Z,20.30
2019-06-01T23:42:15.490Z,20.40
2019-06-01T23:44:41.678Z,20.30
2019-06-01T23:47:07.834Z,20.30
2019-06-01T23:49:34.093Z,20.20
2019-06-01T23:52:00.361Z,20.20
2019-06-01T23:54:27.610Z,20.30
2019-06-01T23:56:54.295Z,20.20
2019-06-01T23:59:20.442Z,20.20
